sensor_id;sensor_type;location;lat;lon;timestamp;pressure;altitude;pressure_sealevel;temperature;humidity
70103;BME280;57470;50.034;15.256;2023-12-20T00:00:05;99047.94;;;7.67;75.64
70103;BME280;57470;50.034;15.256;2023-12-20T00:02:30;99032.06;;;7.67;75.37
70103;BME280;57470;50.034;15.256;2023-12-20T00:04:56;99043.88;;;8.03;74.55
70103;BME280;57470;50.034;15.256;2023-12-20T00:07:21;99049.31;;;7.87;75.10
70103;BME280;57470;50.034;15.256;2023-12-20T00:09:46;99040.22;;;7.91;74.88
70103;BME280;57470;50.034;15.256;2023-12-20T00:12:12;99013.13;;;8.00;74.26
70103;BME280;57470;50.034;15.256;2023-12-20T00:14:37;99012.38;;;7.98;75.00
70103;BME280;57470;50.034;15.256;2023-12-20T00:17:03;99034.22;;;8.28;75.33
70103;BME280;57470;50.034;15.256;2023-12-20T00:19:28;99027.53;;;7.96;77.11
70103;BME280;57470;50.034;15.256;2023-12-20T00:21:54;99026.44;;;7.72;77.92
70103;BME280;57470;50.034;15.256;2023-12-20T00:24:19;99016.41;;;7.50;79.19
70103;BME280;57470;50.034;15.256;2023-12-20T00:26:45;99021.25;;;7.70;78.67
70103;BME280;57470;50.034;15.256;2023-12-20T00:29:11;99033.34;;;7.74;79.83
70103;BME280;57470;50.034;15.256;2023-12-20T00:31:36;99034.03;;;7.64;79.10
70103;BME280;57470;50.034;15.256;2023-12-20T00:34:01;99026.59;;;7.56;79.23
70103;BME280;57470;50.034;15.256;2023-12-20T00:36:27;99016.31;;;7.51;80.86
70103;BME280;57470;50.034;15.256;2023-12-20T00:38:52;99028.91;;;7.75;80.36
70103;BME280;57470;50.034;15.256;2023-12-20T00:41:17;99042.47;;;7.56;81.71
70103;BME280;57470;50.034;15.256;2023-12-20T00:43:43;99037.44;;;7.66;81.06
70103;BME280;57470;50.034;15.256;2023-12-20T00:46:09;99032.59;;;7.72;81.13
70103;BME280;57470;50.034;15.256;2023-12-20T00:48:35;99025.09;;;7.79;81.39
70103;BME280;57470;50.034;15.256;2023-12-20T00:51:00;99033.22;;;7.90;81.70
70103;BME280;57470;50.034;15.256;2023-12-20T00:53:25;99015.19;;;7.82;81.20
70103;BME280;57470;50.034;15.256;2023-12-20T00:55:51;99011.78;;;7.80;81.11
70103;BME280;57470;50.034;15.256;2023-12-20T00:58:16;99020.06;;;7.88;80.42
70103;BME280;57470;50.034;15.256;2023-12-20T01:00:42;99009.25;;;7.65;81.40
70103;BME280;57470;50.034;15.256;2023-12-20T01:03:09;99009.31;;;7.50;80.74
70103;BME280;57470;50.034;15.256;2023-12-20T01:05:34;99018.94;;;7.37;80.53
70103;BME280;57470;50.034;15.256;2023-12-20T01:07:59;99021.88;;;7.47;81.27
70103;BME280;57470;50.034;15.256;2023-12-20T01:10:25;99019.03;;;7.50;81.64
70103;BME280;57470;50.034;15.256;2023-12-20T01:12:53;99020.22;;;7.73;80.94
70103;BME280;57470;50.034;15.256;2023-12-20T01:15:19;99022.19;;;7.42;81.88
70103;BME280;57470;50.034;15.256;2023-12-20T01:17:44;99020.63;;;7.52;81.98
70103;BME280;57470;50.034;15.256;2023-12-20T01:20:09;99018.00;;;7.79;81.13
70103;BME280;57470;50.034;15.256;2023-12-20T01:22:35;99002.81;;;7.42;83.33
70103;BME280;57470;50.034;15.256;2023-12-20T01:25:01;99014.06;;;7.72;83.00
70103;BME280;57470;50.034;15.256;2023-12-20T01:27:27;99011.00;;;7.37;84.63
70103;BME280;57470;50.034;15.256;2023-12-20T01:29:52;99001.19;;;7.25;84.98
70103;BME280;57470;50.034;15.256;2023-12-20T01:32:18;98973.16;;;7.64;84.04
70103;BME280;57470;50.034;15.256;2023-12-20T01:34:43;98994.41;;;7.62;85.35
70103;BME280;57470;50.034;15.256;2023-12-20T01:37:09;98991.00;;;7.74;84.97
70103;BME280;57470;50.034;15.256;2023-12-20T01:39:34;98956.31;;;7.38;87.08
70103;BME280;57470;50.034;15.256;2023-12-20T01:41:59;98970.56;;;7.49;86.74
70103;BME280;57470;50.034;15.256;2023-12-20T01:44:25;98973.47;;;7.59;87.35
70103;BME280;57470;50.034;15.256;2023-12-20T01:46:50;98962.13;;;7.43;88.77
70103;BME280;57470;50.034;15.256;2023-12-20T01:49:16;98949.81;;;7.29;89.65
70103;BME280;57470;50.034;15.256;2023-12-20T01:51:42;98952.31;;;7.04;90.12
70103;BME280;57470;50.034;15.256;2023-12-20T01:54:08;98958.72;;;7.55;89.50
70103;BME280;57470;50.034;15.256;2023-12-20T01:56:34;98942.44;;;7.20;91.25
70103;BME280;57470;50.034;15.256;2023-12-20T01:59:00;98959.94;;;7.08;91.42
70103;BME280;57470;50.034;15.256;2023-12-20T02:01:25;98950.97;;;7.11;91.92
70103;BME280;57470;50.034;15.256;2023-12-20T02:03:53;98952.00;;;7.23;91.47
70103;BME280;57470;50.034;15.256;2023-12-20T02:06:21;98947.00;;;7.04;91.44
70103;BME280;57470;50.034;15.256;2023-12-20T02:08:48;98941.91;;;7.01;92.64
70103;BME280;57470;50.034;15.256;2023-12-20T02:11:15;98936.06;;;6.96;93.46
70103;BME280;57470;50.034;15.256;2023-12-20T02:13:40;98926.50;;;7.07;93.39
70103;BME280;57470;50.034;15.256;2023-12-20T02:16:06;98949.06;;;7.27;92.62
70103;BME280;57470;50.034;15.256;2023-12-20T02:18:32;98937.47;;;7.15;92.99
70103;BME280;57470;50.034;15.256;2023-12-20T02:20:58;98932.66;;;6.65;95.18
70103;BME280;57470;50.034;15.256;2023-12-20T02:23:24;98923.78;;;6.95;94.80
70103;BME280;57470;50.034;15.256;2023-12-20T02:25:52;98921.59;;;7.15;93.51
70103;BME280;57470;50.034;15.256;2023-12-20T02:28:19;98910.13;;;6.88;94.09
70103;BME280;57470;50.034;15.256;2023-12-20T02:30:45;98924.91;;;6.91;94.73
70103;BME280;57470;50.034;15.256;2023-12-20T02:33:12;98911.78;;;6.89;94.83
70103;BME280;57470;50.034;15.256;2023-12-20T02:35:41;98911.78;;;6.89;95.78
70103;BME280;57470;50.034;15.256;2023-12-20T02:38:07;98921.34;;;7.06;95.01
70103;BME280;57470;50.034;15.256;2023-12-20T02:40:34;98918.13;;;6.72;95.39
70103;BME280;57470;50.034;15.256;2023-12-20T02:43:01;98921.91;;;6.83;95.29
70103;BME280;57470;50.034;15.256;2023-12-20T02:45:28;98899.06;;;6.67;95.30
70103;BME280;57470;50.034;15.256;2023-12-20T02:47:55;98922.00;;;6.81;95.76
70103;BME280;57470;50.034;15.256;2023-12-20T02:50:22;98914.53;;;6.73;95.88
70103;BME280;57470;50.034;15.256;2023-12-20T02:52:49;98921.41;;;6.90;95.10
70103;BME280;57470;50.034;15.256;2023-12-20T02:55:15;98921.25;;;6.79;95.35
70103;BME280;57470;50.034;15.256;2023-12-20T02:57:42;98910.88;;;6.76;95.21
70103;BME280;57470;50.034;15.256;2023-12-20T03:00:09;98931.06;;;6.91;95.35
70103;BME280;57470;50.034;15.256;2023-12-20T03:02:37;98928.41;;;6.91;94.96
70103;BME280;57470;50.034;15.256;2023-12-20T03:05:04;98925.50;;;6.67;95.66
70103;BME280;57470;50.034;15.256;2023-12-20T03:07:31;98914.00;;;6.68;95.52
70103;BME280;57470;50.034;15.256;2023-12-20T03:09:57;98910.47;;;6.54;96.12
70103;BME280;57470;50.034;15.256;2023-12-20T03:12:24;98920.41;;;6.64;96.32
70103;BME280;57470;50.034;15.256;2023-12-20T03:14:51;98924.19;;;6.74;96.25
70103;BME280;57470;50.034;15.256;2023-12-20T03:17:17;98920.41;;;6.78;95.84
70103;BME280;57470;50.034;15.256;2023-12-20T03:19:42;98917.41;;;6.70;95.96
70103;BME280;57470;50.034;15.256;2023-12-20T03:22:08;98914.00;;;6.68;96.34
70103;BME280;57470;50.034;15.256;2023-12-20T03:24:33;98921.91;;;6.68;96.31
70103;BME280;57470;50.034;15.256;2023-12-20T03:26:58;98902.97;;;6.62;96.78
70103;BME280;57470;50.034;15.256;2023-12-20T03:29:24;98917.66;;;6.66;96.75
70103;BME280;57470;50.034;15.256;2023-12-20T03:31:49;98913.25;;;6.52;97.79
70103;BME280;57470;50.034;15.256;2023-12-20T03:34:15;98918.31;;;6.84;97.26
70103;BME280;57470;50.034;15.256;2023-12-20T03:36:41;98918.69;;;6.35;98.68
70103;BME280;57470;50.034;15.256;2023-12-20T03:39:06;98903.88;;;6.47;98.38
70103;BME280;57470;50.034;15.256;2023-12-20T03:41:31;98917.56;;;6.39;99.06
70103;BME280;57470;50.034;15.256;2023-12-20T03:43:57;98926.03;;;6.30;99.69
70103;BME280;57470;50.034;15.256;2023-12-20T03:46:22;98920.53;;;6.19;100.00
70103;BME280;57470;50.034;15.256;2023-12-20T03:48:47;98927.34;;;6.37;100.00
70103;BME280;57470;50.034;15.256;2023-12-20T03:51:13;98912.91;;;6.14;100.00
70103;BME280;57470;50.034;15.256;2023-12-20T03:53:38;98908.78;;;6.24;100.00
70103;BME280;57470;50.034;15.256;2023-12-20T03:56:06;98910.09;;;6.31;100.00
70103;BME280;57470;50.034;15.256;2023-12-20T03:58:31;98914.50;;;6.17;100.00
70103;BME280;57470;50.034;15.256;2023-12-20T04:00:56;98904.22;;;6.12;100.00
70103;BME280;57470;50.034;15.256;2023-12-20T04:03:22;98916.59;;;6.26;100.00
70103;BME280;57470;50.034;15.256;2023-12-20T04:05:47;98904.22;;;6.12;100.00
70103;BME280;57470;50.034;15.256;2023-12-20T04:08:12;98907.78;;;6.11;100.00
70103;BME280;57470;50.034;15.256;2023-12-20T04:10:38;98898.94;;;6.26;100.00
70103;BME280;57470;50.034;15.256;2023-12-20T04:13:04;98923.38;;;6.30;100.00
70103;BME280;57470;50.034;15.256;2023-12-20T04:15:29;98893.88;;;5.93;100.00
70103;BME280;57470;50.034;15.256;2023-12-20T04:17:55;98908.38;;;6.16;100.00
70103;BME280;57470;50.034;15.256;2023-12-20T04:20:20;98897.78;;;6.02;100.00
70103;BME280;57470;50.034;15.256;2023-12-20T04:22:45;98911.06;;;6.00;100.00
70103;BME280;57470;50.034;15.256;2023-12-20T04:25:11;98915.06;;;6.08;100.00
70103;BME280;57470;50.034;15.256;2023-12-20T04:27:36;98914.38;;;6.04;100.00
70103;BME280;57470;50.034;15.256;2023-12-20T04:30:02;98911.59;;;5.91;100.00
70103;BME280;57470;50.034;15.256;2023-12-20T04:32:27;98911.91;;;6.01;100.00
70103;BME280;57470;50.034;15.256;2023-12-20T04:34:53;98916.78;;;6.23;100.00
70103;BME280;57470;50.034;15.256;2023-12-20T04:37:18;98921.44;;;6.03;100.00
70103;BME280;57470;50.034;15.256;2023-12-20T04:39:43;98918.44;;;6.10;100.00
70103;BME280;57470;50.034;15.256;2023-12-20T04:42:09;98915.31;;;6.03;100.00
70103;BME280;57470;50.034;15.256;2023-12-20T04:44:34;98914.59;;;6.15;100.00
70103;BME280;57470;50.034;15.256;2023-12-20T04:46:59;98905.97;;;5.97;100.00
70103;BME280;57470;50.034;15.256;2023-12-20T04:49:25;98911.00;;;5.86;100.00
70103;BME280;57470;50.034;15.256;2023-12-20T04:51:50;98900.13;;;5.77;100.00
70103;BME280;57470;50.034;15.256;2023-12-20T04:54:16;98912.47;;;5.76;100.00
70103;BME280;57470;50.034;15.256;2023-12-20T04:56:41;98902.28;;;5.70;100.00
70103;BME280;57470;50.034;15.256;2023-12-20T04:59:07;98912.06;;;5.68;100.00
70103;BME280;57470;50.034;15.256;2023-12-20T05:01:32;98917.34;;;5.68;100.00
70103;BME280;57470;50.034;15.256;2023-12-20T05:03:58;98902.72;;;5.47;100.00
70103;BME280;57470;50.034;15.256;2023-12-20T05:06:23;98914.34;;;5.74;100.00
70103;BME280;57470;50.034;15.256;2023-12-20T05:08:49;98904.66;;;5.59;100.00
70103;BME280;57470;50.034;15.256;2023-12-20T05:11:15;98919.47;;;5.61;100.00
70103;BME280;57470;50.034;15.256;2023-12-20T05:13:41;98925.25;;;5.68;100.00
70103;BME280;57470;50.034;15.256;2023-12-20T05:16:06;98908.41;;;5.55;100.00
70103;BME280;57470;50.034;15.256;2023-12-20T05:18:32;98908.47;;;5.69;100.00
70103;BME280;57470;50.034;15.256;2023-12-20T05:20:57;98923.94;;;5.75;100.00
70103;BME280;57470;50.034;15.256;2023-12-20T05:23:23;98907.88;;;5.80;100.00
70103;BME280;57470;50.034;15.256;2023-12-20T05:25:48;98921.31;;;5.75;100.00
70103;BME280;57470;50.034;15.256;2023-12-20T05:28:15;98936.53;;;5.86;100.00
70103;BME280;57470;50.034;15.256;2023-12-20T05:30:40;98933.97;;;5.84;100.00
70103;BME280;57470;50.034;15.256;2023-12-20T05:33:05;98928.91;;;5.65;100.00
70103;BME280;57470;50.034;15.256;2023-12-20T05:35:31;98929.31;;;5.74;100.00
70103;BME280;57470;50.034;15.256;2023-12-20T05:37:56;98938.28;;;5.71;100.00
70103;BME280;57470;50.034;15.256;2023-12-20T05:40:22;98933.75;;;5.73;100.00
70103;BME280;57470;50.034;15.256;2023-12-20T05:42:47;98925.41;;;5.81;100.00
70103;BME280;57470;50.034;15.256;2023-12-20T05:45:14;98930.16;;;5.74;100.00
70103;BME280;57470;50.034;15.256;2023-12-20T05:47:40;98937.50;;;5.69;100.00
70103;BME280;57470;50.034;15.256;2023-12-20T05:50:05;98943.56;;;5.71;100.00
70103;BME280;57470;50.034;15.256;2023-12-20T05:52:31;98931.69;;;5.78;100.00
70103;BME280;57470;50.034;15.256;2023-12-20T05:54:56;98943.19;;;5.77;100.00
70103;BME280;57470;50.034;15.256;2023-12-20T05:57:27;98938.75;;;5.78;100.00
70103;BME280;57470;50.034;15.256;2023-12-20T05:59:52;98940.63;;;5.76;100.00
70103;BME280;57470;50.034;15.256;2023-12-20T06:02:17;98947.00;;;5.87;100.00
70103;BME280;57470;50.034;15.256;2023-12-20T06:04:43;98935.09;;;5.80;100.00
70103;BME280;57470;50.034;15.256;2023-12-20T06:07:11;98945.16;;;5.74;100.00
70103;BME280;57470;50.034;15.256;2023-12-20T06:09:37;98945.25;;;5.56;100.00
70103;BME280;57470;50.034;15.256;2023-12-20T06:12:02;98941.19;;;5.51;100.00
70103;BME280;57470;50.034;15.256;2023-12-20T06:14:28;98941.59;;;5.59;100.00
70103;BME280;57470;50.034;15.256;2023-12-20T06:16:53;98944.00;;;5.63;100.00
70103;BME280;57470;50.034;15.256;2023-12-20T06:19:18;98947.38;;;5.65;100.00
70103;BME280;57470;50.034;15.256;2023-12-20T06:21:44;98950.28;;;5.61;100.00
70103;BME280;57470;50.034;15.256;2023-12-20T06:24:09;98933.97;;;5.39;100.00
70103;BME280;57470;50.034;15.256;2023-12-20T06:26:36;98953.75;;;5.46;100.00
70103;BME280;57470;50.034;15.256;2023-12-20T06:29:02;98932.00;;;5.42;100.00
70103;BME280;57470;50.034;15.256;2023-12-20T06:31:28;98937.19;;;5.59;100.00
70103;BME280;57470;50.034;15.256;2023-12-20T06:33:54;98956.41;;;5.61;100.00
70103;BME280;57470;50.034;15.256;2023-12-20T06:36:23;98958.72;;;5.52;100.00
70103;BME280;57470;50.034;15.256;2023-12-20T06:38:49;98945.00;;;5.61;100.00
70103;BME280;57470;50.034;15.256;2023-12-20T06:41:15;98941.00;;;5.70;100.00
70103;BME280;57470;50.034;15.256;2023-12-20T06:43:40;98939.78;;;5.75;100.00
70103;BME280;57470;50.034;15.256;2023-12-20T06:46:06;98935.06;;;5.50;100.00
70103;BME280;57470;50.034;15.256;2023-12-20T06:48:32;98940.84;;;5.57;100.00
70103;BME280;57470;50.034;15.256;2023-12-20T06:51:00;98949.84;;;5.69;100.00
70103;BME280;57470;50.034;15.256;2023-12-20T06:53:25;98958.47;;;5.41;100.00
70103;BME280;57470;50.034;15.256;2023-12-20T06:55:50;98964.16;;;5.49;100.00
70103;BME280;57470;50.034;15.256;2023-12-20T06:58:16;98961.19;;;5.39;100.00
70103;BME280;57470;50.034;15.256;2023-12-20T07:00:41;98965.59;;;5.39;100.00
70103;BME280;57470;50.034;15.256;2023-12-20T07:03:07;98974.13;;;5.44;100.00
70103;BME280;57470;50.034;15.256;2023-12-20T07:05:34;98959.13;;;5.28;100.00
70103;BME280;57470;50.034;15.256;2023-12-20T07:07:59;98976.16;;;5.39;100.00
70103;BME280;57470;50.034;15.256;2023-12-20T07:10:24;98985.19;;;5.35;100.00
70103;BME280;57470;50.034;15.256;2023-12-20T07:12:50;98982.84;;;5.28;100.00
70103;BME280;57470;50.034;15.256;2023-12-20T07:15:16;98991.53;;;5.31;100.00
70103;BME280;57470;50.034;15.256;2023-12-20T07:17:42;98997.25;;;5.23;100.00
70103;BME280;57470;50.034;15.256;2023-12-20T07:20:09;99005.94;;;5.41;100.00
70103;BME280;57470;50.034;15.256;2023-12-20T07:22:36;98996.75;;;5.32;100.00
70103;BME280;57470;50.034;15.256;2023-12-20T07:25:01;99009.41;;;5.25;100.00
70103;BME280;57470;50.034;15.256;2023-12-20T07:27:27;99007.88;;;5.37;100.00
70103;BME280;57470;50.034;15.256;2023-12-20T07:29:52;98998.88;;;5.25;100.00
70103;BME280;57470;50.034;15.256;2023-12-20T07:32:18;99014.31;;;5.16;100.00
70103;BME280;57470;50.034;15.256;2023-12-20T07:34:43;99017.63;;;5.19;100.00
70103;BME280;57470;50.034;15.256;2023-12-20T07:37:09;99018.34;;;5.39;100.00
70103;BME280;57470;50.034;15.256;2023-12-20T07:39:37;99022.41;;;5.28;100.00
70103;BME280;57470;50.034;15.256;2023-12-20T07:42:03;99018.47;;;5.20;100.00
70103;BME280;57470;50.034;15.256;2023-12-20T07:44:28;99021.81;;;5.23;100.00
70103;BME280;57470;50.034;15.256;2023-12-20T07:46:53;99027.25;;;5.20;100.00
70103;BME280;57470;50.034;15.256;2023-12-20T07:49:19;99023.16;;;5.15;100.00
70103;BME280;57470;50.034;15.256;2023-12-20T07:51:44;99021.22;;;5.18;100.00
70103;BME280;57470;50.034;15.256;2023-12-20T07:54:10;99023.50;;;5.09;100.00
70103;BME280;57470;50.034;15.256;2023-12-20T07:56:35;99041.06;;;5.25;100.00
70103;BME280;57470;50.034;15.256;2023-12-20T07:59:01;99030.38;;;5.11;100.00
70103;BME280;57470;50.034;15.256;2023-12-20T08:01:26;99033.44;;;5.19;100.00
70103;BME280;57470;50.034;15.256;2023-12-20T08:03:52;99046.03;;;5.14;100.00
70103;BME280;57470;50.034;15.256;2023-12-20T08:06:17;99035.06;;;5.06;100.00
70103;BME280;57470;50.034;15.256;2023-12-20T08:08:43;99047.13;;;5.10;100.00
70103;BME280;57470;50.034;15.256;2023-12-20T08:11:08;99030.22;;;5.14;100.00
70103;BME280;57470;50.034;15.256;2023-12-20T08:13:33;99026.56;;;5.17;100.00
70103;BME280;57470;50.034;15.256;2023-12-20T08:15:59;99048.88;;;5.27;100.00
70103;BME280;57470;50.034;15.256;2023-12-20T08:18:24;99033.63;;;5.16;100.00
70103;BME280;57470;50.034;15.256;2023-12-20T08:20:50;99049.25;;;5.19;100.00
70103;BME280;57470;50.034;15.256;2023-12-20T08:23:18;99041.47;;;5.34;100.00
70103;BME280;57470;50.034;15.256;2023-12-20T08:25:44;99049.47;;;5.32;100.00
70103;BME280;57470;50.034;15.256;2023-12-20T08:28:10;99056.44;;;5.33;100.00
70103;BME280;57470;50.034;15.256;2023-12-20T08:30:35;99039.78;;;5.33;100.00
70103;BME280;57470;50.034;15.256;2023-12-20T08:33:01;99053.81;;;5.49;100.00
70103;BME280;57470;50.034;15.256;2023-12-20T08:35:27;99056.38;;;5.35;100.00
70103;BME280;57470;50.034;15.256;2023-12-20T08:37:52;99055.75;;;5.29;100.00
70103;BME280;57470;50.034;15.256;2023-12-20T08:40:18;99066.44;;;5.44;100.00
70103;BME280;57470;50.034;15.256;2023-12-20T08:42:43;99052.91;;;5.50;100.00
70103;BME280;57470;50.034;15.256;2023-12-20T08:45:09;99057.09;;;5.54;100.00
70103;BME280;57470;50.034;15.256;2023-12-20T08:47:35;99055.31;;;5.54;100.00
70103;BME280;57470;50.034;15.256;2023-12-20T08:50:00;99046.03;;;5.63;100.00
70103;BME280;57470;50.034;15.256;2023-12-20T08:52:26;99054.38;;;5.71;100.00
70103;BME280;57470;50.034;15.256;2023-12-20T08:54:53;99065.44;;;5.62;100.00
70103;BME280;57470;50.034;15.256;2023-12-20T08:57:21;99065.44;;;5.62;100.00
70103;BME280;57470;50.034;15.256;2023-12-20T08:59:49;99063.78;;;5.75;100.00
70103;BME280;57470;50.034;15.256;2023-12-20T09:02:14;99082.88;;;5.80;100.00
70103;BME280;57470;50.034;15.256;2023-12-20T09:04:40;99079.03;;;5.70;100.00
70103;BME280;57470;50.034;15.256;2023-12-20T09:07:05;99074.84;;;5.82;100.00
70103;BME280;57470;50.034;15.256;2023-12-20T09:09:32;99077.06;;;5.74;100.00
70103;BME280;57470;50.034;15.256;2023-12-20T09:11:59;99073.69;;;5.87;100.00
70103;BME280;57470;50.034;15.256;2023-12-20T09:14:24;99076.84;;;5.78;100.00
70103;BME280;57470;50.034;15.256;2023-12-20T09:16:50;99068.59;;;6.00;100.00
70103;BME280;57470;50.034;15.256;2023-12-20T09:19:17;99065.66;;;5.73;100.00
70103;BME280;57470;50.034;15.256;2023-12-20T09:21:43;99069.34;;;5.71;100.00
70103;BME280;57470;50.034;15.256;2023-12-20T09:24:08;99059.22;;;5.94;100.00
70103;BME280;57470;50.034;15.256;2023-12-20T09:26:34;99064.75;;;6.06;99.69
70103;BME280;57470;50.034;15.256;2023-12-20T09:28:59;99064.69;;;6.07;99.91
70103;BME280;57470;50.034;15.256;2023-12-20T09:31:25;99061.03;;;5.94;100.00
70103;BME280;57470;50.034;15.256;2023-12-20T09:33:50;99060.06;;;5.79;100.00
70103;BME280;57470;50.034;15.256;2023-12-20T09:36:15;99049.16;;;5.85;100.00
70103;BME280;57470;50.034;15.256;2023-12-20T09:38:41;99038.13;;;5.94;100.00
70103;BME280;57470;50.034;15.256;2023-12-20T09:41:07;99038.75;;;5.82;100.00
70103;BME280;57470;50.034;15.256;2023-12-20T09:43:35;99044.41;;;6.37;99.55
70103;BME280;57470;50.034;15.256;2023-12-20T09:46:05;99049.16;;;6.17;99.67
70103;BME280;57470;50.034;15.256;2023-12-20T09:48:31;99043.34;;;6.26;98.69
70103;BME280;57470;50.034;15.256;2023-12-20T09:50:58;99038.34;;;6.51;97.73
70103;BME280;57470;50.034;15.256;2023-12-20T09:53:24;99046.88;;;6.40;98.11
70103;BME280;57470;50.034;15.256;2023-12-20T09:55:57;99041.84;;;6.36;98.53
70103;BME280;57470;50.034;15.256;2023-12-20T09:58:24;99036.19;;;6.28;98.40
70103;BME280;57470;50.034;15.256;2023-12-20T10:00:50;99039.94;;;6.24;97.61
70103;BME280;57470;50.034;15.256;2023-12-20T10:03:17;99029.63;;;6.35;98.14
70103;BME280;57470;50.034;15.256;2023-12-20T10:05:44;99031.72;;;6.44;97.83
70103;BME280;57470;50.034;15.256;2023-12-20T10:08:10;99032.50;;;6.30;98.07
70103;BME280;57470;50.034;15.256;2023-12-20T10:10:35;99031.94;;;6.25;98.33
70103;BME280;57470;50.034;15.256;2023-12-20T10:15:29;99024.59;;;6.30;98.14
70103;BME280;57470;50.034;15.256;2023-12-20T10:17:54;99025.59;;;6.44;98.11
70103;BME280;57470;50.034;15.256;2023-12-20T10:20:20;99029.09;;;6.44;97.90
70103;BME280;57470;50.034;15.256;2023-12-20T10:22:46;99012.75;;;6.08;98.49
70103;BME280;57470;50.034;15.256;2023-12-20T10:25:11;99021.38;;;6.25;98.36
70103;BME280;57470;50.034;15.256;2023-12-20T10:27:37;99028.13;;;6.15;98.15
70103;BME280;57470;50.034;15.256;2023-12-20T10:30:02;99012.25;;;6.31;97.90
70103;BME280;57470;50.034;15.256;2023-12-20T10:32:28;99018.81;;;6.24;97.98
70103;BME280;57470;50.034;15.256;2023-12-20T10:34:54;99017.81;;;6.11;97.26
70103;BME280;57470;50.034;15.256;2023-12-20T10:37:20;99029.88;;;6.30;97.86
70103;BME280;57470;50.034;15.256;2023-12-20T10:39:55;99013.47;;;6.25;98.03
70103;BME280;57470;50.034;15.256;2023-12-20T10:42:26;99008.22;;;6.39;97.51
70103;BME280;57470;50.034;15.256;2023-12-20T10:44:52;99020.97;;;6.47;97.28
70103;BME280;57470;50.034;15.256;2023-12-20T10:47:19;99014.75;;;6.48;96.83
70103;BME280;57470;50.034;15.256;2023-12-20T10:49:46;99025.84;;;6.69;95.93
70103;BME280;57470;50.034;15.256;2023-12-20T10:52:12;99007.03;;;6.59;96.51
70103;BME280;57470;50.034;15.256;2023-12-20T10:54:41;99017.50;;;6.61;96.12
70103;BME280;57470;50.034;15.256;2023-12-20T10:57:07;99013.34;;;6.57;96.73
70103;BME280;57470;50.034;15.256;2023-12-20T10:59:36;99018.09;;;6.80;96.32
70103;BME280;57470;50.034;15.256;2023-12-20T11:02:04;99009.88;;;6.70;96.22
70103;BME280;57470;50.034;15.256;2023-12-20T11:04:44;99009.94;;;6.55;96.45
70103;BME280;57470;50.034;15.256;2023-12-20T11:07:36;98996.25;;;6.48;96.77
70103;BME280;57470;50.034;15.256;2023-12-20T11:10:27;99011.72;;;6.54;96.29
70103;BME280;57470;50.034;15.256;2023-12-20T11:13:06;99004.94;;;6.50;96.42
70103;BME280;57470;50.034;15.256;2023-12-20T11:15:35;99002.69;;;6.28;96.12
70103;BME280;57470;50.034;15.256;2023-12-20T11:18:01;99005.34;;;6.28;96.59
70103;BME280;57470;50.034;15.256;2023-12-20T11:20:39;98991.19;;;6.29;96.50
70103;BME280;57470;50.034;15.256;2023-12-20T11:23:06;99000.91;;;6.29;96.90
70103;BME280;57470;50.034;15.256;2023-12-20T11:25:55;99003.88;;;6.38;96.37
70103;BME280;57470;50.034;15.256;2023-12-20T11:28:23;98988.47;;;6.31;95.79
70103;BME280;57470;50.034;15.256;2023-12-20T11:30:57;98993.69;;;6.47;96.03
70103;BME280;57470;50.034;15.256;2023-12-20T11:33:29;98987.75;;;6.43;95.94
70103;BME280;57470;50.034;15.256;2023-12-20T11:35:56;98976.81;;;6.49;95.99
70103;BME280;57470;50.034;15.256;2023-12-20T11:38:22;98977.69;;;6.64;95.80
70103;BME280;57470;50.034;15.256;2023-12-20T11:40:49;98974.66;;;6.56;95.34
70103;BME280;57470;50.034;15.256;2023-12-20T11:46:02;98969.56;;;6.81;95.43
70103;BME280;57470;50.034;15.256;2023-12-20T11:48:28;98960.22;;;6.75;94.70
70103;BME280;57470;50.034;15.256;2023-12-20T11:50:55;98958.06;;;6.96;93.95
70103;BME280;57470;50.034;15.256;2023-12-20T11:53:20;98958.56;;;6.89;94.22
70103;BME280;57470;50.034;15.256;2023-12-20T11:55:48;98953.03;;;6.63;94.93
70103;BME280;57470;50.034;15.256;2023-12-20T11:58:14;98956.44;;;6.65;94.91
70103;BME280;57470;50.034;15.256;2023-12-20T12:00:41;98959.47;;;6.73;95.59
70103;BME280;57470;50.034;15.256;2023-12-20T12:03:06;98964.19;;;6.83;94.28
70103;BME280;57470;50.034;15.256;2023-12-20T12:05:32;98960.41;;;6.72;93.46
70103;BME280;57470;50.034;15.256;2023-12-20T12:07:58;98974.03;;;6.95;93.31
70103;BME280;57470;50.034;15.256;2023-12-20T12:10:23;98956.28;;;6.68;92.72
70103;BME280;57470;50.034;15.256;2023-12-20T12:12:49;98955.81;;;6.62;92.63
70103;BME280;57470;50.034;15.256;2023-12-20T12:15:15;98956.16;;;6.56;92.70
70103;BME280;57470;50.034;15.256;2023-12-20T12:17:40;98946.06;;;6.48;90.99
70103;BME280;57470;50.034;15.256;2023-12-20T12:20:07;98953.66;;;6.24;91.55
70103;BME280;57470;50.034;15.256;2023-12-20T12:22:35;98944.19;;;6.20;93.05
70103;BME280;57470;50.034;15.256;2023-12-20T12:25:12;98944.50;;;6.16;91.80
70103;BME280;57470;50.034;15.256;2023-12-20T12:27:40;98932.09;;;6.02;90.84
70103;BME280;57470;50.034;15.256;2023-12-20T12:30:06;98922.22;;;6.06;90.14
70103;BME280;57470;50.034;15.256;2023-12-20T12:32:35;98926.19;;;6.13;88.62
70103;BME280;57470;50.034;15.256;2023-12-20T12:35:03;98921.44;;;6.03;90.32
70103;BME280;57470;50.034;15.256;2023-12-20T12:37:29;98924.34;;;6.43;91.11
70103;BME280;57470;50.034;15.256;2023-12-20T12:39:54;98920.19;;;6.39;92.51
70103;BME280;57470;50.034;15.256;2023-12-20T12:42:20;98915.31;;;6.61;92.85
70103;BME280;57470;50.034;15.256;2023-12-20T12:44:46;98920.88;;;6.85;91.94
70103;BME280;57470;50.034;15.256;2023-12-20T12:47:12;98927.00;;;6.86;92.23
70103;BME280;57470;50.034;15.256;2023-12-20T12:49:37;98920.78;;;6.72;92.05
70103;BME280;57470;50.034;15.256;2023-12-20T12:52:05;98919.47;;;6.80;91.98
70103;BME280;57470;50.034;15.256;2023-12-20T12:54:30;98923.22;;;6.75;90.76